Terminal Aerodrome Forecast
Issued by NWS

Home | Current Version | Previous Version | Text Only | Print | Product List | Glossary On
Versions: 1 2 3 4 5 6 7 8 9 10 11 12 13 14 15 16 17 18 19 20 21 22 23 24 25
000
FTUS46 KPQR 191742
TAFONP
TAF
KONP 191742Z 1918/2018 19015G25KT 1 1/2SM RA BR OVC003
      TEMPO 1918/1922 4SM -RA BR
     FM200300 22013KT 6SM -SHRA SCT005 OVC035
     FM200800 22008KT P6SM -SHRA SCT015 BKN050
     FM201400 23014KT P6SM -SHRA BKN040=

USA.gov is the U.S. government's official web portal to all federal, state and local government web resources and services.